createdAt,value
2023-05-14T00:00:33.067Z,101686.13
2023-05-14T00:03:05.108Z,101681.66
2023-05-14T00:05:37.167Z,101687.84
2023-05-14T00:08:09.219Z,101676.28
2023-05-14T00:10:41.234Z,101680.72
2023-05-14T00:13:13.173Z,101678.00
2023-05-14T00:15:45.129Z,101678.00
2023-05-14T00:18:17.376Z,101673.59
2023-05-14T00:20:51.614Z,101669.97
2023-05-14T00:23:24.480Z,101663.63
2023-05-14T00:25:56.473Z,101662.78
2023-05-14T00:28:28.491Z,101664.53
2023-05-14T00:31:00.584Z,101663.59
2023-05-14T00:33:33.126Z,101655.56
2023-05-14T00:36:05.311Z,101655.56
2023-05-14T00:38:37.309Z,101659.94
2023-05-14T00:41:09.310Z,101658.13
2023-05-14T00:43:41.299Z,101663.41
2023-05-14T00:46:14.334Z,101656.28
2023-05-14T00:48:46.639Z,101647.34
2023-05-14T00:51:19.147Z,101651.72
2023-05-14T00:53:52.122Z,101652.56
2023-05-14T00:56:24.923Z,101655.16
2023-05-14T00:58:56.858Z,101647.94
2023-05-14T01:01:28.944Z,101653.19
2023-05-14T01:04:01.521Z,101645.16
2023-05-14T01:06:54.438Z,101652.09
2023-05-14T01:09:29.333Z,101648.53
2023-05-14T01:12:06.915Z,101648.44
2023-05-14T01:15:06.615Z,101644.75
2023-05-14T01:17:53.668Z,101649.13
2023-05-14T01:20:27.296Z,101648.19
2023-05-14T01:22:59.294Z,101648.09
2023-05-14T01:25:32.417Z,101650.63
2023-05-14T01:28:20.398Z,101652.31
2023-05-14T01:31:00.907Z,101651.41
2023-05-14T01:33:36.083Z,101649.63
2023-05-14T01:36:08.500Z,101646.00
2023-05-14T01:38:45.627Z,101645.03
2023-05-14T01:41:19.789Z,101629.94
2023-05-14T01:43:52.268Z,101635.16
2023-05-14T01:46:25.230Z,101637.81
2023-05-14T01:48:57.184Z,101638.66
2023-05-14T01:51:29.254Z,101634.13
2023-05-14T01:54:01.241Z,101629.50
2023-05-14T01:56:33.259Z,101640.13
2023-05-14T01:59:05.239Z,101640.09
2023-05-14T02:01:37.201Z,101633.81
2023-05-14T02:04:09.265Z,101631.03
2023-05-14T02:06:41.248Z,101638.06
2023-05-14T02:09:13.426Z,101631.81
2023-05-14T02:11:45.407Z,101632.63
2023-05-14T02:14:17.424Z,101630.72
2023-05-14T02:16:51.028Z,101635.97
2023-05-14T02:19:23.148Z,101626.97
2023-05-14T02:21:55.313Z,101631.38
2023-05-14T02:24:27.618Z,101625.09
2023-05-14T02:27:01.110Z,101626.81
2023-05-14T02:29:33.093Z,101627.63
2023-05-14T02:32:05.674Z,101616.97
2023-05-14T02:34:38.704Z,101630.16
2023-05-14T02:37:10.722Z,101632.75
2023-05-14T02:39:42.745Z,101636.31
2023-05-14T02:42:14.680Z,101629.13
2023-05-14T02:44:46.621Z,101627.25
2023-05-14T02:47:19.066Z,101625.38
2023-05-14T02:49:51.331Z,101623.59
2023-05-14T02:52:23.284Z,101624.47
2023-05-14T02:54:55.201Z,101627.13
2023-05-14T02:57:27.201Z,101595.72
2023-05-14T02:59:59.222Z,101619.09
2023-05-14T03:02:31.734Z,101623.50
2023-05-14T03:05:04.668Z,101623.44
2023-05-14T03:07:36.720Z,101623.44
2023-05-14T03:10:09.333Z,101629.63
2023-05-14T03:12:41.276Z,101624.22
2023-05-14T03:15:13.224Z,101621.56
2023-05-14T03:17:45.202Z,101613.53
2023-05-14T03:20:17.301Z,101621.44
2023-05-14T03:22:49.451Z,101614.38
2023-05-14T03:25:21.518Z,101610.75
2023-05-14T03:27:53.464Z,101617.81
2023-05-14T03:30:26.010Z,101606.16
2023-05-14T03:32:59.728Z,101599.88
2023-05-14T03:35:31.827Z,101597.22
2023-05-14T03:38:03.820Z,101592.75
2023-05-14T03:40:35.876Z,101603.00
2023-05-14T03:43:07.813Z,101599.75
2023-05-14T03:45:40.498Z,101602.22
2023-05-14T03:48:12.522Z,101599.47
2023-05-14T03:50:44.577Z,101617.16
2023-05-14T03:53:17.045Z,101617.09
2023-05-14T03:55:49.090Z,101603.72
2023-05-14T03:58:21.012Z,101615.16
2023-05-14T04:00:53.122Z,101610.63
2023-05-14T04:03:25.211Z,101613.13
2023-05-14T04:05:57.211Z,101606.84
2023-05-14T04:08:29.118Z,101607.69
2023-05-14T04:11:01.072Z,101606.78
2023-05-14T04:13:32.995Z,101611.97
2023-05-14T04:16:05.497Z,101599.56
2023-05-14T04:18:37.468Z,101610.19
2023-05-14T04:21:09.679Z,101599.56
2023-05-14T04:23:41.637Z,101596.91
2023-05-14T04:26:13.631Z,101588.03
2023-05-14T04:28:45.701Z,101601.31
2023-05-14T04:31:17.720Z,101595.91
2023-05-14T04:33:49.652Z,101601.16
2023-05-14T04:36:21.634Z,101605.56
2023-05-14T04:38:53.579Z,101606.53
2023-05-14T04:41:25.664Z,101610.03
2023-05-14T04:43:58.992Z,101604.72
2023-05-14T04:46:31.194Z,101605.63
2023-05-14T04:49:03.193Z,101603.81
2023-05-14T04:51:35.152Z,101601.22
2023-05-14T04:54:07.143Z,101597.63
2023-05-14T04:56:39.119Z,101607.44
2023-05-14T04:59:11.082Z,101604.56
2023-05-14T05:01:43.145Z,101608.16
2023-05-14T05:04:15.220Z,101617.81
2023-05-14T05:06:47.277Z,101614.41
2023-05-14T05:09:19.218Z,101620.63
2023-05-14T05:11:51.296Z,101624.06
2023-05-14T05:14:23.189Z,101628.50
2023-05-14T05:16:55.134Z,101625.84
2023-05-14T05:19:39.701Z,101627.56
2023-05-14T05:22:16.181Z,101622.19
2023-05-14T05:24:49.785Z,101627.56
2023-05-14T05:27:22.143Z,101625.88
2023-05-14T05:29:54.004Z,101631.25
2023-05-14T05:32:26.085Z,101636.63
2023-05-14T05:34:58.099Z,101630.47
2023-05-14T05:37:31.924Z,101626.97
2023-05-14T05:40:05.955Z,101627.16
2023-05-14T05:42:37.872Z,101628.22
2023-05-14T05:45:10.424Z,101625.69
2023-05-14T05:47:42.459Z,101634.88
2023-05-14T05:50:15.080Z,101621.75
2023-05-14T05:52:47.234Z,101620.22
2023-05-14T05:55:19.324Z,101609.66
2023-05-14T05:57:51.395Z,101598.97
2023-05-14T06:00:24.694Z,101620.53
2023-05-14T06:02:57.116Z,101624.22
2023-05-14T06:05:29.087Z,101632.38
2023-05-14T06:08:01.468Z,101624.41
2023-05-14T06:10:34.846Z,101627.69
2023-05-14T06:13:06.978Z,101630.44
2023-05-14T06:15:39.096Z,101643.97
2023-05-14T06:18:11.014Z,101644.25
2023-05-14T06:20:43.164Z,101640.91
2023-05-14T06:23:15.085Z,101636.47
2023-05-14T06:25:48.421Z,101641.16
2023-05-14T06:28:22.204Z,101648.53
2023-05-14T06:30:54.239Z,101645.41
2023-05-14T06:33:30.928Z,101642.13
2023-05-14T06:36:06.248Z,101637.16
2023-05-14T06:38:38.446Z,101634.88
2023-05-14T06:41:10.511Z,101635.28
2023-05-14T06:43:42.445Z,101639.91
2023-05-14T06:46:14.336Z,101638.19
2023-05-14T06:48:46.393Z,101640.94
2023-05-14T06:51:18.314Z,101631.34
2023-05-14T06:53:50.356Z,101632.38
2023-05-14T06:56:22.908Z,101629.75
2023-05-14T06:58:54.911Z,101632.38
2023-05-14T07:01:26.902Z,101620.56
2023-05-14T07:03:58.891Z,101634.78
2023-05-14T07:06:30.916Z,101629.66
2023-05-14T07:09:03.333Z,101619.06
2023-05-14T07:11:35.411Z,101625.16
2023-05-14T07:14:07.360Z,101631.41
2023-05-14T07:16:40.284Z,101601.19
2023-05-14T07:19:12.557Z,101619.91
2023-05-14T07:21:44.589Z,101626.31
2023-05-14T07:24:16.498Z,101629.31
2023-05-14T07:26:48.455Z,101630.44
2023-05-14T07:29:20.418Z,101628.03
2023-05-14T07:31:52.471Z,101622.78
2023-05-14T07:34:24.474Z,101625.25
2023-05-14T07:36:56.521Z,101623.31
2023-05-14T07:39:28.593Z,101626.81
2023-05-14T07:42:01.758Z,101628.63
2023-05-14T07:44:33.821Z,101624.31
2023-05-14T07:47:07.561Z,101627.88
2023-05-14T07:49:39.559Z,101630.63
2023-05-14T07:52:11.551Z,101627.00
2023-05-14T07:54:43.494Z,101623.44
2023-05-14T07:57:15.456Z,101629.72
2023-05-14T07:59:48.641Z,101624.59
2023-05-14T08:02:20.719Z,101619.47
2023-05-14T08:04:53.128Z,101625.78
2023-05-14T08:07:25.581Z,101625.66
2023-05-14T08:09:57.535Z,101618.56
2023-05-14T08:12:29.952Z,101627.66
2023-05-14T08:15:02.624Z,101615.38
2023-05-14T08:17:34.780Z,101612.03
2023-05-14T08:20:07.919Z,101617.59
2023-05-14T08:22:39.929Z,101609.69
2023-05-14T08:25:12.046Z,101616.03
2023-05-14T08:27:44.032Z,101618.75
2023-05-14T08:30:16.406Z,101613.47
2023-05-14T08:32:48.658Z,101603.72
2023-05-14T08:35:20.776Z,101610.94
2023-05-14T08:37:52.778Z,101613.63
2023-05-14T08:40:25.084Z,101602.16
2023-05-14T08:42:58.823Z,101604.00
2023-05-14T08:45:34.505Z,101600.50
2023-05-14T08:48:11.558Z,101595.16
2023-05-14T08:50:44.421Z,101596.94
2023-05-14T08:53:16.420Z,101585.31
2023-05-14T08:55:51.323Z,101588.91
2023-05-14T08:58:26.708Z,101587.13
2023-05-14T09:00:58.662Z,101582.66
2023-05-14T09:03:31.388Z,101568.41
2023-05-14T09:06:06.000Z,101565.72
2023-05-14T09:08:38.842Z,101571.03
2023-05-14T09:11:10.916Z,101563.91
2023-05-14T09:13:43.081Z,101573.72
2023-05-14T09:16:17.970Z,101557.59
2023-05-14T09:18:51.455Z,101561.16
2023-05-14T09:21:23.828Z,101558.47
2023-05-14T09:23:58.025Z,101558.44
2023-05-14T09:26:35.460Z,101559.34
2023-05-14T09:29:07.994Z,101555.84
2023-05-14T09:31:40.021Z,101555.78
2023-05-14T09:34:12.216Z,101560.22
2023-05-14T09:36:44.181Z,101556.59
2023-05-14T09:39:17.422Z,101552.13
2023-05-14T09:41:49.835Z,101543.16
2023-05-14T09:44:23.350Z,101543.19
2023-05-14T09:46:56.284Z,101543.09
2023-05-14T09:49:28.521Z,101543.94
2023-05-14T09:52:03.641Z,101542.97
2023-05-14T09:54:37.303Z,101535.69
2023-05-14T09:57:09.279Z,101533.84
2023-05-14T09:59:41.332Z,101536.53
2023-05-14T10:02:23.571Z,101534.78
2023-05-14T10:05:00.342Z,101538.25
2023-05-14T10:07:46.658Z,101538.16
2023-05-14T10:10:27.354Z,101536.31
2023-05-14T10:13:05.753Z,101530.13
2023-05-14T10:15:52.156Z,101530.13
2023-05-14T10:18:26.333Z,101529.16
2023-05-14T10:21:06.303Z,101523.72
2023-05-14T10:23:39.125Z,101516.41
2023-05-14T10:26:11.419Z,101522.59
2023-05-14T10:28:44.205Z,101510.91
2023-05-14T10:31:16.311Z,101515.34
2023-05-14T10:33:50.921Z,101513.47
2023-05-14T10:36:23.085Z,101516.03
2023-05-14T10:38:58.569Z,101516.00
2023-05-14T10:41:30.602Z,101514.25
2023-05-14T10:44:10.215Z,101513.50
2023-05-14T10:46:42.392Z,101502.72
2023-05-14T10:49:14.541Z,101498.16
2023-05-14T10:51:49.560Z,101507.06
2023-05-14T10:54:23.653Z,101504.44
2023-05-14T10:56:59.775Z,101499.09
2023-05-14T10:59:34.440Z,101493.53
2023-05-14T11:02:20.427Z,101491.56
2023-05-14T11:05:06.536Z,101489.59
2023-05-14T11:07:44.931Z,101482.22
2023-05-14T11:10:20.438Z,101485.56
2023-05-14T11:12:52.891Z,101468.56
2023-05-14T11:15:27.023Z,101481.91
2023-05-14T11:17:59.034Z,101478.44
2023-05-14T11:20:32.816Z,101472.16
2023-05-14T11:23:04.907Z,101477.44
2023-05-14T11:25:37.162Z,101465.75
2023-05-14T11:28:09.354Z,101463.94
2023-05-14T11:30:41.281Z,101458.63
2023-05-14T11:33:13.360Z,101464.84
2023-05-14T11:35:46.637Z,101465.75
2023-05-14T11:38:21.244Z,101453.25
2023-05-14T11:40:58.651Z,101431.78
2023-05-14T11:43:30.910Z,101458.34
2023-05-14T11:46:02.852Z,101449.41
2023-05-14T11:48:35.356Z,101446.72
2023-05-14T11:51:07.322Z,101440.50
2023-05-14T11:53:39.381Z,101439.59
2023-05-14T11:56:11.402Z,101446.72
2023-05-14T11:58:56.953Z,101438.66
2023-05-14T12:01:30.213Z,101445.03
2023-05-14T12:04:04.584Z,101427.97
2023-05-14T12:06:38.703Z,101437.78
2023-05-14T12:09:12.928Z,101436.78
2023-05-14T12:11:46.597Z,101431.22
2023-05-14T12:14:24.322Z,101435.53
2023-05-14T12:16:56.377Z,101423.84
2023-05-14T12:19:30.995Z,101418.53
2023-05-14T12:22:03.120Z,101415.19
2023-05-14T12:24:35.061Z,101417.16
2023-05-14T12:27:09.639Z,101412.38
2023-05-14T12:29:43.661Z,101406.16
2023-05-14T12:32:16.006Z,101407.88
2023-05-14T12:34:48.112Z,101396.97
2023-05-14T12:37:20.064Z,101401.59
2023-05-14T12:39:52.105Z,101400.69
2023-05-14T12:42:24.232Z,101388.84
2023-05-14T12:44:56.338Z,101388.91
2023-05-14T12:47:28.355Z,101386.38
2023-05-14T12:50:00.309Z,101377.41
2023-05-14T12:52:38.524Z,101378.88
2023-05-14T12:55:11.805Z,101380.50
2023-05-14T12:57:43.863Z,101376.69
2023-05-14T13:00:16.284Z,101367.00
2023-05-14T13:02:48.310Z,101362.47
2023-05-14T13:05:20.348Z,101370.41
2023-05-14T13:07:53.811Z,101367.63
2023-05-14T13:10:25.776Z,101360.53
2023-05-14T13:12:58.254Z,101368.03
2023-05-14T13:15:31.608Z,101344.09
2023-05-14T13:18:04.656Z,101350.84
2023-05-14T13:20:36.812Z,101346.28
2023-05-14T13:23:08.993Z,101345.06
2023-05-14T13:25:41.153Z,101345.69
2023-05-14T13:28:13.204Z,101349.00
2023-05-14T13:31:08.899Z,101342.78
2023-05-14T13:33:43.240Z,101344.28
2023-05-14T13:36:16.404Z,101334.06
2023-05-14T13:38:48.511Z,101330.44
2023-05-14T13:41:21.705Z,101345.16
2023-05-14T13:43:53.654Z,101340.00
2023-05-14T13:46:25.808Z,101333.78
2023-05-14T13:48:57.732Z,101337.09
2023-05-14T13:51:29.651Z,101333.25
2023-05-14T13:54:01.552Z,101332.22
2023-05-14T13:56:33.495Z,101326.13
2023-05-14T13:59:05.980Z,101326.16
2023-05-14T14:01:38.093Z,101323.44
2023-05-14T14:04:10.984Z,101317.53
2023-05-14T14:06:42.913Z,101325.63
2023-05-14T14:09:14.923Z,101320.38
2023-05-14T14:11:47.078Z,101311.69
2023-05-14T14:14:19.060Z,101320.94
2023-05-14T14:16:50.998Z,101315.63
2023-05-14T14:19:23.018Z,101305.03
2023-05-14T14:21:55.056Z,101307.72
2023-05-14T14:24:27.287Z,101310.44
2023-05-14T14:26:59.316Z,101309.53
2023-05-14T14:29:31.431Z,101306.06
2023-05-14T14:32:04.402Z,101316.00
2023-05-14T14:34:36.468Z,101306.41
2023-05-14T14:37:08.590Z,101303.91
2023-05-14T14:39:40.653Z,101312.06
2023-05-14T14:42:12.862Z,101307.63
2023-05-14T14:44:44.747Z,101310.47
2023-05-14T14:47:16.716Z,101305.22
2023-05-14T14:49:48.623Z,101300.88
2023-05-14T14:52:21.001Z,101307.25
2023-05-14T14:54:53.888Z,101308.38
2023-05-14T14:57:26.785Z,101301.31
2023-05-14T14:59:59.844Z,101302.38
2023-05-14T15:02:33.583Z,101305.19
2023-05-14T15:05:06.499Z,101299.84
2023-05-14T15:07:38.454Z,101270.50
2023-05-14T15:10:10.818Z,101306.25
2023-05-14T15:12:42.878Z,101292.91
2023-05-14T15:15:14.847Z,101294.81
2023-05-14T15:17:46.850Z,101293.06
2023-05-14T15:20:18.946Z,101291.38
2023-05-14T15:22:54.096Z,101294.94
2023-05-14T15:25:27.216Z,101287.84
2023-05-14T15:27:59.249Z,101286.97
2023-05-14T15:30:31.241Z,101285.25
2023-05-14T15:33:03.478Z,101283.41
2023-05-14T15:35:36.560Z,101281.63
2023-05-14T15:38:09.155Z,101293.34
2023-05-14T15:40:41.611Z,101288.06
2023-05-14T15:43:13.572Z,101290.84
2023-05-14T15:45:46.171Z,101281.06
2023-05-14T15:48:18.271Z,101282.94
2023-05-14T15:50:50.482Z,101282.03
2023-05-14T15:53:22.448Z,101281.19
2023-05-14T15:55:54.556Z,101281.28
2023-05-14T15:58:26.930Z,101274.97
2023-05-14T16:00:58.895Z,101277.59
2023-05-14T16:03:30.962Z,101269.50
2023-05-14T16:06:03.090Z,101273.94
2023-05-14T16:08:35.126Z,101267.63
2023-05-14T16:11:07.860Z,101264.06
2023-05-14T16:13:41.615Z,101271.19
2023-05-14T16:16:13.693Z,101271.25
2023-05-14T16:18:45.788Z,101275.72
2023-05-14T16:21:17.750Z,101271.25
2023-05-14T16:23:49.678Z,101266.81
2023-05-14T16:26:22.376Z,101267.72
2023-05-14T16:28:54.343Z,101269.47
2023-05-14T16:31:26.370Z,101265.88
2023-05-14T16:33:59.360Z,101262.28
2023-05-14T16:36:31.503Z,101275.66
2023-05-14T16:39:07.674Z,101274.88
2023-05-14T16:41:41.105Z,101273.09
2023-05-14T16:44:13.124Z,101270.44
2023-05-14T16:46:45.111Z,101274.06
2023-05-14T16:49:17.193Z,101267.00
2023-05-14T16:51:49.352Z,101268.00
2023-05-14T16:54:21.388Z,101277.91
2023-05-14T16:56:53.420Z,101280.59
2023-05-14T16:59:25.519Z,101279.63
2023-05-14T17:01:57.552Z,101277.84
2023-05-14T17:04:29.750Z,101264.59
2023-05-14T17:07:02.020Z,101282.47
2023-05-14T17:09:34.093Z,101275.34
2023-05-14T17:12:06.741Z,101280.69
2023-05-14T17:14:38.667Z,101280.81
2023-05-14T17:17:10.802Z,101276.44
2023-05-14T17:19:42.809Z,101274.72
2023-05-14T17:22:14.802Z,101280.97
2023-05-14T17:24:46.702Z,101256.13
2023-05-14T17:27:18.618Z,101287.31
2023-05-14T17:29:53.087Z,101292.75
2023-05-14T17:32:25.236Z,101292.88
2023-05-14T17:34:57.571Z,101294.81
2023-05-14T17:37:29.642Z,101302.88
2023-05-14T17:40:01.619Z,101299.34
2023-05-14T17:42:33.534Z,101302.06
2023-05-14T17:45:06.375Z,101303.84
2023-05-14T17:47:38.379Z,101314.56
2023-05-14T17:50:11.287Z,101313.72
2023-05-14T17:52:44.260Z,101316.41
2023-05-14T17:55:17.530Z,101318.25
2023-05-14T17:57:49.692Z,101321.88
2023-05-14T18:00:21.772Z,101321.03
2023-05-14T18:02:53.837Z,101323.75
2023-05-14T18:05:26.513Z,101330.03
2023-05-14T18:07:58.679Z,101323.81
2023-05-14T18:10:30.685Z,101333.63
2023-05-14T18:13:02.668Z,101332.75
2023-05-14T18:15:36.784Z,101333.63
2023-05-14T18:18:09.075Z,101339.03
2023-05-14T18:20:41.054Z,101343.50
2023-05-14T18:23:13.014Z,101339.94
2023-05-14T18:25:45.448Z,101345.28
2023-05-14T18:28:18.941Z,101345.31
2023-05-14T18:30:51.047Z,101334.63
2023-05-14T18:33:23.122Z,101339.13
2023-05-14T18:35:55.120Z,101337.34
2023-05-14T18:38:27.325Z,101336.41
2023-05-14T18:40:59.311Z,101348.88
2023-05-14T18:43:31.292Z,101347.13
2023-05-14T18:46:03.418Z,101353.31
2023-05-14T18:48:35.616Z,101354.25
2023-05-14T18:51:07.720Z,101355.13
2023-05-14T18:53:39.671Z,101357.81
2023-05-14T18:56:11.580Z,101359.56
2023-05-14T18:58:43.551Z,101355.09
2023-05-14T19:01:15.799Z,101355.06
2023-05-14T19:03:47.914Z,101362.16
2023-05-14T19:06:20.453Z,101364.81
2023-05-14T19:08:52.342Z,101368.38
2023-05-14T19:11:24.308Z,101369.25
2023-05-14T19:13:56.455Z,101369.28
2023-05-14T19:16:28.606Z,101363.94
2023-05-14T19:19:00.721Z,101365.72
2023-05-14T19:21:32.748Z,101368.28
2023-05-14T19:24:05.277Z,101373.63
2023-05-14T19:26:37.571Z,101370.13
2023-05-14T19:29:09.608Z,101372.66
2023-05-14T19:31:41.641Z,101379.75
2023-05-14T19:34:13.659Z,101377.97
2023-05-14T19:36:45.777Z,101377.03
2023-05-14T19:39:17.742Z,101379.66
2023-05-14T19:41:49.708Z,101384.97
2023-05-14T19:44:21.597Z,101386.63
2023-05-14T19:46:53.723Z,101386.56
2023-05-14T19:49:25.729Z,101387.31
2023-05-14T19:51:57.649Z,101381.94
2023-05-14T19:54:29.607Z,101378.31
2023-05-14T19:57:01.521Z,101376.50
2023-05-14T19:59:34.690Z,101379.19
2023-05-14T20:02:07.821Z,101393.38
2023-05-14T20:04:40.086Z,101388.88
2023-05-14T20:07:15.359Z,101386.22
2023-05-14T20:09:47.517Z,101390.59
2023-05-14T20:12:19.619Z,101396.81
2023-05-14T20:14:51.704Z,101388.81
2023-05-14T20:17:24.950Z,101379.00
2023-05-14T20:19:57.051Z,101395.94
2023-05-14T20:22:28.972Z,101399.50
2023-05-14T20:25:00.911Z,101382.47
2023-05-14T20:27:32.954Z,101393.19
2023-05-14T20:30:06.069Z,101405.59
2023-05-14T20:32:38.244Z,101402.03
2023-05-14T20:35:10.565Z,101401.16
2023-05-14T20:37:42.556Z,101390.44
2023-05-14T20:40:14.687Z,101398.44
2023-05-14T20:42:46.750Z,101399.31
2023-05-14T20:45:18.926Z,101400.13
2023-05-14T20:47:50.941Z,101399.16
2023-05-14T20:50:23.108Z,101372.28
2023-05-14T20:52:55.793Z,101403.50
2023-05-14T20:55:28.036Z,101399.00
2023-05-14T20:58:00.246Z,101400.78
2023-05-14T21:00:32.339Z,101397.19
2023-05-14T21:03:04.998Z,101405.06
2023-05-14T21:05:37.226Z,101400.44
2023-05-14T21:08:09.373Z,101396.81
2023-05-14T21:10:41.308Z,101397.66
2023-05-14T21:13:13.398Z,101388.56
2023-05-14T21:15:45.570Z,101404.59
2023-05-14T21:18:17.449Z,101405.50
2023-05-14T21:20:49.438Z,101396.66
2023-05-14T21:23:21.373Z,101401.94
2023-05-14T21:25:54.927Z,101401.06
2023-05-14T21:28:26.903Z,101400.16
2023-05-14T21:30:58.894Z,101390.31
2023-05-14T21:33:30.857Z,101397.47
2023-05-14T21:36:03.084Z,101385.00
2023-05-14T21:38:35.541Z,101385.88
2023-05-14T21:41:07.802Z,101381.34
2023-05-14T21:43:40.849Z,101389.31
2023-05-14T21:46:12.852Z,101384.84
2023-05-14T21:48:44.853Z,101376.84
2023-05-14T21:51:17.147Z,101375.94
2023-05-14T21:53:49.064Z,101379.00
2023-05-14T21:56:22.527Z,101376.97
2023-05-14T21:58:56.133Z,101374.22
2023-05-14T22:01:28.408Z,101370.56
2023-05-14T22:04:00.310Z,101381.25
2023-05-14T22:06:32.407Z,101373.28
2023-05-14T22:09:04.609Z,101376.84
2023-05-14T22:11:36.542Z,101373.28
2023-05-14T22:14:09.117Z,101373.19
2023-05-14T22:16:41.173Z,101364.31
2023-05-14T22:19:13.300Z,101367.81
2023-05-14T22:21:45.352Z,101374.72
2023-05-14T22:24:17.318Z,101373.63
2023-05-14T22:26:49.961Z,101366.34
2023-05-14T22:29:21.943Z,101354.69
2023-05-14T22:31:53.961Z,101361.69
2023-05-14T22:34:26.069Z,101364.28
2023-05-14T22:36:58.095Z,101365.13
2023-05-14T22:39:30.331Z,101359.69
2023-05-14T22:42:02.273Z,101357.91
2023-05-14T22:44:36.615Z,101356.09
2023-05-14T22:47:08.961Z,101357.81
2023-05-14T22:49:41.521Z,101350.78
2023-05-14T22:52:13.373Z,101348.16
2023-05-14T22:54:46.702Z,101344.53
2023-05-14T22:57:18.784Z,101354.28
2023-05-14T22:59:50.764Z,101348.00
2023-05-14T23:02:22.713Z,101337.19
2023-05-14T23:04:54.750Z,101339.88
2023-05-14T23:07:26.774Z,101331.88
2023-05-14T23:09:58.728Z,101331.91
2023-05-14T23:12:30.676Z,101325.75
2023-05-14T23:15:02.675Z,101333.59
2023-05-14T23:17:34.810Z,101341.31
2023-05-14T23:20:10.530Z,101333.25
2023-05-14T23:22:42.497Z,101342.97
2023-05-14T23:25:14.602Z,101333.25
2023-05-14T23:27:46.869Z,101328.00
2023-05-14T23:30:18.905Z,101322.69
2023-05-14T23:32:50.915Z,101320.78
2023-05-14T23:35:23.387Z,101329.59
2023-05-14T23:37:55.669Z,101332.09
2023-05-14T23:40:27.641Z,101331.97
2023-05-14T23:43:02.819Z,101331.84
2023-05-14T23:45:34.941Z,101321.88
2023-05-14T23:48:07.218Z,101328.81
2023-05-14T23:50:39.226Z,101334.19
2023-05-14T23:53:11.185Z,101322.75
2023-05-14T23:55:43.193Z,101318.22
2023-05-14T23:58:15.276Z,101311.84
